Time;durP1;ratioP1;P1;durP2;ratioP2;P2;SDS_P1;SDS_P2;PMS_P1;PMS_P2;Temp;Humidity;BMP_temperature;BMP_pressure;BME280_temperature;BME280_humidity;BME280_pressure;Samples;Min_cycle;Max_cycle;Signal;HPM_P1;HPM_P2
2022/09/03 00:01:50;;;;;;;3.67;2.00;;;16.60;99.90;;;;;;5115573;28;20024;-74
2022/09/03 00:04:43;;;;;;;1.80;1.70;;;16.60;99.90;;;;;;5115661;28;20100;-76
2022/09/03 00:07:30;;;;;;;4.95;2.83;;;16.50;99.90;;;;;;5063304;28;20048;-75
2022/09/03 00:10:04;;;;;;;2.30;1.65;;;16.50;99.90;;;;;;5115517;28;20030;-75
2022/09/03 00:12:38;;;;;;;2.80;1.60;;;16.50;99.90;;;;;;5115351;28;20019;-75
2022/09/03 00:15:22;;;;;;;3.40;1.60;;;16.30;99.90;;;;;;5115785;28;20023;-75
2022/09/03 00:17:59;;;;;;;2.33;1.60;;;16.30;99.90;;;;;;5115253;28;20493;-74
2022/09/03 00:20:33;;;;;;;2.97;1.83;;;16.30;99.90;;;;;;5115525;28;20035;-75
2022/09/03 00:23:21;;;;;;;2.25;1.92;;;16.10;99.90;;;;;;5115478;28;20043;-75
2022/09/03 00:25:57;;;;;;;3.58;1.60;;;16.00;99.90;;;;;;5115221;28;20381;-74
2022/09/03 00:28:29;;;;;;;4.30;1.50;;;15.90;99.90;;;;;;5115351;28;20027;-75
2022/09/03 00:31:13;;;;;;;2.03;1.33;;;15.80;99.90;;;;;;5115364;28;20034;-75
2022/09/03 00:33:41;;;;;;;2.00;1.20;;;15.80;99.90;;;;;;5115810;28;20035;-74
2022/09/03 00:36:30;;;;;;;2.60;1.73;;;15.70;99.90;;;;;;5115244;28;20065;-75
2022/09/03 00:38:57;;;;;;;3.35;1.80;;;15.50;99.90;;;;;;5114638;28;20084;-75
2022/09/03 00:41:40;;;;;;;1.98;1.55;;;15.50;99.90;;;;;;5114771;28;20024;-75
2022/09/03 00:44:30;;;;;;;1.88;1.60;;;15.40;99.90;;;;;;5114730;28;20450;-75
2022/09/03 00:46:55;;;;;;;;;;;15.20;99.90;;;;;;5115084;28;20027;-74
2022/09/03 00:49:32;;;;;;;2.53;1.52;;;15.30;99.90;;;;;;5114721;28;19911;-74
2022/09/03 00:52:20;;;;;;;2.58;1.80;;;15.20;99.90;;;;;;5098939;28;20095;-75
2022/09/03 00:55:00;;;;;;;2.60;2.10;;;15.00;99.90;;;;;;5094506;28;20028;-75
2022/09/03 00:57:33;;;;;;;;;;;14.90;99.90;;;;;;5094559;28;20038;-75
2022/09/03 01:00:08;;;;;;;2.60;1.65;;;14.90;99.90;;;;;;5094182;28;19947;-74
2022/09/03 01:02:41;;;;;;;4.00;1.60;;;14.80;99.90;;;;;;5093814;28;20449;-75
2022/09/03 01:05:12;;;;;;;3.25;2.08;;;14.80;99.90;;;;;;5093435;28;20012;-74
2022/09/03 01:08:00;;;;;;;3.17;1.88;;;14.80;99.90;;;;;;5093990;28;20042;-75
2022/09/03 01:10:43;;;;;;;3.22;1.50;;;14.60;99.90;;;;;;5080334;28;20040;-75
2022/09/03 01:13:23;;;;;;;1.88;1.42;;;14.70;99.90;;;;;;5094319;28;20052;-75
2022/09/03 01:16:15;;;;;;;1.70;1.60;;;14.60;99.90;;;;;;5094002;28;20039;-75
2022/09/03 01:19:14;;;;;;;7.22;1.85;;;14.60;99.90;;;;;;5082800;28;20432;-74
2022/09/03 01:22:09;;;;;;;2.55;1.73;;;14.50;99.90;;;;;;5093745;28;20488;-75
2022/09/03 01:24:57;;;;;;;2.50;1.83;;;14.50;99.90;;;;;;5093858;28;20106;-74
2022/09/03 01:27:42;;;;;;;4.03;1.40;;;14.40;99.90;;;;;;5093975;28;20043;-74
2022/09/03 01:30:17;;;;;;;2.42;1.40;;;14.40;99.90;;;;;;5094100;28;20020;-75
2022/09/03 01:32:58;;;;;;;3.70;1.60;;;14.50;99.90;;;;;;5094318;28;20558;-75
2022/09/03 01:35:46;;;;;;;4.43;1.42;;;14.60;99.90;;;;;;5093722;28;20362;-75
2022/09/03 01:38:33;;;;;;;1.70;1.60;;;14.60;99.90;;;;;;5093419;28;20427;-74
2022/09/03 01:44:22;;;;;;;1.92;1.45;;;14.80;99.90;;;;;;5093630;28;20436;-74
2022/09/03 01:47:00;;;;;;;1.50;1.40;;;14.80;99.90;;;;;;5093693;28;20131;-74
2022/09/03 01:49:45;;;;;;;1.83;1.50;;;14.80;99.90;;;;;;5093327;28;20031;-74
2022/09/03 01:52:38;;;;;;;1.73;1.42;;;14.90;99.90;;;;;;5093438;28;20046;-74
2022/09/03 01:55:22;;;;;;;1.60;1.30;;;14.90;99.90;;;;;;5093257;28;20043;-75
2022/09/03 01:57:56;;;;;;;3.97;1.20;;;15.00;99.90;;;;;;5093121;28;20032;-75
2022/09/03 02:00:23;;;;;;;2.92;1.30;;;15.10;99.90;;;;;;5093088;28;20032;-74
2022/09/03 02:02:50;;;;;;;3.00;1.38;;;15.00;99.90;;;;;;5093090;28;20228;-74
2022/09/03 02:05:25;;;;;;;1.23;1.15;;;15.20;99.90;;;;;;5108172;28;20055;-75
2022/09/03 02:08:05;;;;;;;2.25;1.63;;;15.20;99.90;;;;;;5113332;28;20039;-75
2022/09/03 02:10:47;;;;;;;2.60;1.67;;;15.10;99.90;;;;;;5113320;28;20529;-75
2022/09/03 02:13:28;;;;;;;1.40;1.30;;;15.30;99.90;;;;;;5113452;28;20023;-74
2022/09/03 02:15:59;;;;;;;1.25;1.17;;;15.30;99.90;;;;;;5112586;28;20024;-74
2022/09/03 02:18:30;;;;;;;1.65;1.33;;;15.20;99.90;;;;;;5113478;28;20024;-74
2022/09/03 02:20:57;;;;;;;1.40;1.30;;;15.20;99.90;;;;;;5113279;28;20058;-75
2022/09/03 02:23:27;;;;;;;6.85;1.20;;;15.20;99.90;;;;;;5112657;28;20172;-75
2022/09/03 02:25:56;;;;;;;3.38;1.30;;;15.20;99.90;;;;;;5112552;28;20024;-74
2022/09/03 02:28:26;;;;;;;1.20;1.10;;;15.30;99.90;;;;;;5112377;28;20684;-75
2022/09/03 02:30:51;;;;;;;1.70;1.33;;;15.30;99.90;;;;;;5112745;28;20031;-75
2022/09/03 02:33:17;;;;;;;2.92;1.42;;;15.20;99.90;;;;;;5112738;28;20020;-75
2022/09/03 02:35:43;;;;;;;2.65;1.30;;;15.30;99.90;;;;;;5112665;28;20019;-75
2022/09/03 02:38:20;;;;;;;1.33;1.23;;;15.30;99.90;;;;;;5112223;28;20058;-75
2022/09/03 02:40:46;;;;;;;1.33;1.10;;;15.20;99.90;;;;;;5112379;28;20046;-75
2022/09/03 02:43:36;;;;;;;4.10;1.35;;;15.20;99.90;;;;;;5112587;28;20019;-75
2022/09/03 02:46:05;;;;;;;5.32;1.35;;;15.20;99.90;;;;;;5112565;28;20115;-74
2022/09/03 02:48:31;;;;;;;1.85;1.17;;;15.20;99.90;;;;;;5112239;28;20475;-74
2022/09/03 02:50:57;;;;;;;6.78;1.30;;;15.20;99.90;;;;;;5112765;28;20027;-75
2022/09/03 02:53:23;;;;;;;1.83;1.20;;;15.20;99.90;;;;;;5112758;28;20023;-75
2022/09/03 02:55:49;;;;;;;3.20;1.20;;;15.20;99.90;;;;;;5112848;28;20012;-74
2022/09/03 02:58:14;;;;;;;2.28;1.13;;;15.20;99.90;;;;;;5112872;28;20360;-75
2022/09/03 03:00:40;;;;;;;1.25;1.15;;;15.20;99.90;;;;;;5112659;28;20114;-75
2022/09/03 03:03:06;;;;;;;1.52;1.13;;;15.10;99.90;;;;;;5112959;28;20032;-74
2022/09/03 03:05:43;;;;;;;1.73;0.90;;;15.20;99.90;;;;;;5112551;28;20028;-75
2022/09/03 03:08:13;;;;;;;2.38;1.00;;;15.20;99.90;;;;;;5092003;28;20458;-75
2022/09/03 03:10:43;;;;;;;1.75;1.02;;;15.20;99.90;;;;;;5092014;28;20028;-75
2022/09/03 03:13:09;;;;;;;1.73;1.23;;;15.10;99.90;;;;;;5091870;28;20020;-75
2022/09/03 03:15:35;;;;;;;2.10;1.02;;;15.10;99.90;;;;;;5091910;28;20099;-74
2022/09/03 03:18:01;;;;;;;1.58;1.05;;;15.20;99.90;;;;;;5099268;28;20047;-74
2022/09/03 03:20:26;;;;;;;3.67;1.10;;;15.10;99.90;;;;;;5111779;28;20039;-75
2022/09/03 03:22:52;;;;;;;1.65;1.25;;;15.10;99.90;;;;;;5111944;28;20097;-75
2022/09/03 03:25:17;;;;;;;1.50;1.00;;;15.20;99.90;;;;;;5111733;28;20485;-74
2022/09/03 03:27:43;;;;;;;5.18;1.23;;;15.10;99.90;;;;;;5114502;28;20458;-75
2022/09/03 03:30:10;;;;;;;1.13;1.02;;;15.10;99.90;;;;;;5115636;28;20023;-75
2022/09/03 03:32:36;;;;;;;2.85;1.08;;;15.10;99.90;;;;;;5095535;28;20111;-75
2022/09/03 03:35:03;;;;;;;1.38;1.27;;;15.20;99.90;;;;;;5095343;28;20339;-75
2022/09/03 03:37:30;;;;;;;1.48;1.10;;;15.10;99.90;;;;;;5094827;28;20402;-75
2022/09/03 03:39:55;;;;;;;2.05;1.17;;;15.20;99.90;;;;;;5095125;28;20069;-74
2022/09/03 03:42:21;;;;;;;1.30;0.98;;;15.20;99.90;;;;;;5095118;28;20448;-74
2022/09/03 03:44:47;;;;;;;3.90;1.15;;;15.30;99.90;;;;;;5095024;28;20505;-75
2022/09/03 03:47:12;;;;;;;1.20;1.10;;;15.20;99.90;;;;;;5095036;28;20024;-75
2022/09/03 03:49:38;;;;;;;3.13;1.02;;;15.20;99.90;;;;;;5095154;28;20020;-75
2022/09/03 03:52:03;;;;;;;2.25;1.17;;;15.30;99.90;;;;;;5095140;28;20028;-75
2022/09/03 03:54:29;;;;;;;2.88;1.20;;;15.30;99.90;;;;;;5095007;28;20023;-75
2022/09/03 03:56:55;;;;;;;1.60;1.02;;;15.30;99.90;;;;;;5095075;28;20016;-75
2022/09/03 03:59:21;;;;;;;1.42;1.00;;;15.30;99.90;;;;;;5094767;28;20103;-75
2022/09/03 04:01:49;;;;;;;2.55;1.17;;;15.30;99.90;;;;;;5094702;28;20169;-75
2022/09/03 04:04:15;;;;;;;6.15;1.33;;;15.30;99.90;;;;;;5076387;28;20474;-75
2022/09/03 04:06:42;;;;;;;3.17;1.10;;;15.30;99.90;;;;;;5094794;28;20027;-74
2022/09/03 04:09:07;;;;;;;1.20;0.70;;;15.30;99.90;;;;;;5094633;28;20028;-75
2022/09/03 04:11:33;;;;;;;2.67;1.02;;;15.30;99.90;;;;;;5094620;28;20027;-75
2022/09/03 04:13:58;;;;;;;2.65;1.13;;;15.20;99.90;;;;;;5094657;28;20024;-74
2022/09/03 04:16:26;;;;;;;1.95;1.10;;;15.20;99.90;;;;;;5094411;28;20459;-75
2022/09/03 04:18:53;;;;;;;1.48;1.25;;;15.20;99.90;;;;;;5094483;28;20024;-75
2022/09/03 04:21:24;;;;;;;3.47;1.02;;;15.20;99.90;;;;;;5094318;28;20032;-75
2022/09/03 04:23:52;;;;;;;1.02;1.02;;;15.10;99.90;;;;;;5094373;28;20115;-75
2022/09/03 04:26:20;;;;;;;2.83;1.40;;;15.10;99.90;;;;;;5094142;28;20028;-75
2022/09/03 04:28:46;;;;;;;1.20;1.10;;;15.00;99.90;;;;;;5094159;28;20039;-75
2022/09/03 04:31:13;;;;;;;3.33;1.38;;;15.00;99.90;;;;;;5103697;28;20024;-75
2022/09/03 04:33:40;;;;;;;1.33;1.10;;;15.00;99.90;;;;;;5114551;28;20080;-75
2022/09/03 04:36:07;;;;;;;1.17;0.93;;;15.00;99.90;;;;;;5114440;28;20020;-75
2022/09/03 04:38:34;;;;;;;1.95;1.10;;;14.90;99.90;;;;;;5113415;28;20047;-74
2022/09/03 04:41:00;;;;;;;1.98;1.25;;;14.90;99.90;;;;;;5114196;28;20422;-74
2022/09/03 04:43:27;;;;;;;1.00;0.82;;;14.90;99.90;;;;;;5114215;28;20107;-75
2022/09/03 04:45:57;;;;;;;1.65;1.05;;;15.00;99.90;;;;;;5114165;28;20027;-75
2022/09/03 04:48:23;;;;;;;;;;;14.90;99.90;;;;;;5114849;28;20515;-74
2022/09/03 04:50:48;;;;;;;1.40;1.08;;;14.80;99.90;;;;;;5114266;28;19956;-75
2022/09/03 04:53:14;;;;;;;2.22;1.05;;;14.80;99.90;;;;;;5114351;28;20557;-75
2022/09/03 04:55:39;;;;;;;1.67;1.15;;;14.80;99.90;;;;;;5114118;28;20024;-74
2022/09/03 04:58:08;;;;;;;1.52;1.00;;;14.80;99.90;;;;;;5114216;28;20056;-75
2022/09/03 05:00:35;;;;;;;4.22;1.23;;;14.70;99.90;;;;;;5113950;28;20554;-75
2022/09/03 05:03:03;;;;;;;1.40;1.00;;;14.70;99.90;;;;;;5113798;28;20058;-75
2022/09/03 05:05:29;;;;;;;1.58;1.30;;;14.70;99.90;;;;;;5114195;28;20064;-75
2022/09/03 05:07:57;;;;;;;2.65;1.20;;;14.60;99.90;;;;;;5095806;28;20107;-75
2022/09/03 05:10:22;;;;;;;1.10;1.00;;;14.60;99.90;;;;;;5093436;28;20025;-75
2022/09/03 05:12:58;;;;;;;1.33;0.93;;;14.60;99.90;;;;;;5093599;28;20020;-74
2022/09/03 05:15:23;;;;;;;2.85;1.27;;;14.60;99.90;;;;;;5104942;28;20020;-75
2022/09/03 05:17:53;;;;;;;1.48;1.08;;;14.60;99.90;;;;;;5113353;28;20094;-75
2022/09/03 05:20:18;;;;;;;1.93;1.00;;;14.50;99.90;;;;;;5103276;28;20107;-75
2022/09/03 05:22:44;;;;;;;5.78;1.38;;;14.60;99.90;;;;;;5105997;28;20142;-75
2022/09/03 05:25:09;;;;;;;3.58;1.30;;;14.60;99.90;;;;;;5100785;28;20102;-74
2022/09/03 05:27:35;;;;;;;2.53;1.30;;;14.60;99.90;;;;;;5092861;28;20105;-75
2022/09/03 05:30:00;;;;;;;2.05;1.13;;;14.60;99.90;;;;;;5093000;28;20046;-75
2022/09/03 05:32:29;;;;;;;1.95;1.08;;;14.50;99.90;;;;;;5093296;28;20048;-74
2022/09/03 05:34:55;;;;;;;2.88;1.52;;;14.60;99.90;;;;;;5092869;28;20480;-75
2022/09/03 05:37:22;;;;;;;1.65;1.00;;;14.60;99.90;;;;;;5097185;28;20020;-75
2022/09/03 05:39:47;;;;;;;1.20;1.10;;;14.60;99.90;;;;;;5113260;28;20012;-74
2022/09/03 05:42:13;;;;;;;1.80;1.00;;;14.60;99.90;;;;;;5112920;28;20032;-74
2022/09/03 05:44:39;;;;;;;1.20;1.10;;;14.70;99.90;;;;;;5113366;28;20026;-75
2022/09/03 05:47:05;;;;;;;1.48;1.10;;;14.70;99.90;;;;;;5095784;28;20020;-75
2022/09/03 05:49:30;;;;;;;1.63;1.20;;;14.80;99.90;;;;;;5092401;28;20035;-75
2022/09/03 05:51:56;;;;;;;1.67;1.30;;;14.80;99.90;;;;;;5092629;28;20648;-74
2022/09/03 05:54:22;;;;;;;2.10;1.10;;;14.80;99.90;;;;;;5092880;28;20020;-75
2022/09/03 05:56:48;;;;;;;1.55;1.33;;;14.80;99.90;;;;;;5092613;28;20031;-74
2022/09/03 05:59:14;;;;;;;2.42;1.13;;;14.80;99.90;;;;;;5092919;28;20550;-75
2022/09/03 06:01:42;;;;;;;1.58;1.17;;;14.80;99.90;;;;;;5092339;28;20032;-75
2022/09/03 06:04:10;;;;;;;1.35;1.25;;;14.70;99.90;;;;;;5092232;28;20073;-74
2022/09/03 06:06:38;;;;;;;2.67;1.10;;;14.80;99.90;;;;;;5092399;28;20013;-76
2022/09/03 06:09:18;;;;;;;2.65;1.08;;;14.80;99.90;;;;;;5092334;28;20031;-75
2022/09/03 06:11:44;;;;;;;3.70;1.10;;;14.90;99.90;;;;;;5092378;28;20509;-75
2022/09/03 06:14:12;;;;;;;1.30;1.20;;;14.90;99.90;;;;;;5092574;28;20031;-74
2022/09/03 06:16:43;;;;;;;1.60;1.15;;;15.00;99.90;;;;;;5092555;28;20455;-74
2022/09/03 06:19:12;;;;;;;1.88;1.20;;;15.00;99.90;;;;;;5095879;28;20016;-74
2022/09/03 06:21:41;;;;;;;1.08;1.05;;;15.10;99.90;;;;;;5113075;28;20027;-74
2022/09/03 06:24:11;;;;;;;1.80;1.13;;;15.00;99.90;;;;;;5113233;28;20098;-75
2022/09/03 06:26:37;;;;;;;1.80;1.55;;;15.20;99.90;;;;;;5110252;28;20200;-75
2022/09/03 06:29:03;;;;;;;3.72;1.33;;;15.20;99.90;;;;;;5102497;28;20150;-75
2022/09/03 06:31:29;;;;;;;2.28;1.13;;;15.30;99.90;;;;;;5108423;28;20103;-75
2022/09/03 06:33:55;;;;;;;2.67;1.40;;;15.40;99.90;;;;;;5095609;28;20024;-76
2022/09/03 06:36:22;;;;;;;1.23;1.02;;;15.40;99.90;;;;;;5106744;28;20023;-76
2022/09/03 06:38:54;;;;;;;1.58;1.25;;;15.50;99.90;;;;;;5112395;28;20039;-74
2022/09/03 06:41:25;;;;;;;3.38;1.50;;;15.50;99.90;;;;;;5112313;28;20163;-75
2022/09/03 06:43:57;;;;;;;2.60;1.50;;;15.60;99.90;;;;;;5112327;28;20016;-75
2022/09/03 06:46:23;;;;;;;2.00;1.40;;;15.70;99.90;;;;;;5112722;28;20515;-75
2022/09/03 06:48:50;;;;;;;1.45;1.35;;;17.00;99.90;;;;;;5112019;28;20047;-74
2022/09/03 06:51:21;;;;;;;5.78;1.35;;;20.90;99.90;;;;;;5112661;28;20370;-75
2022/09/03 06:53:49;;;;;;;3.42;1.40;;;22.50;99.90;;;;;;5113376;28;20119;-76
2022/09/03 06:56:17;;;;;;;4.80;1.40;;;22.80;99.90;;;;;;5112221;28;20071;-76
2022/09/03 06:58:45;;;;;;;2.05;1.50;;;23.80;99.90;;;;;;5112267;28;20477;-75
2022/09/03 07:01:17;;;;;;;2.20;1.45;;;24.70;99.90;;;;;;5112482;28;20423;-75
2022/09/03 07:03:45;;;;;;;3.20;1.25;;;24.00;99.90;;;;;;5116145;28;20038;-76
2022/09/03 07:06:12;;;;;;;2.83;1.40;;;24.70;99.90;;;;;;5116079;28;20030;-75
2022/09/03 07:08:38;;;;;;;1.50;1.40;;;24.60;99.90;;;;;;5115846;28;20047;-75
2022/09/03 07:11:09;;;;;;;1.15;1.08;;;27.40;99.90;;;;;;5115984;28;20058;-75
2022/09/03 07:13:43;;;;;;;1.80;1.30;;;26.50;99.90;;;;;;5116075;28;20442;-76
2022/09/03 07:16:12;;;;;;;1.88;1.35;;;26.60;99.90;;;;;;5115878;28;20039;-74
2022/09/03 07:18:38;;;;;;;1.65;1.27;;;27.20;99.90;;;;;;5115866;28;20040;-76
2022/09/03 07:21:06;;;;;;;1.30;1.20;;;28.30;99.80;;;;;;5115737;28;20031;-76
2022/09/03 07:23:33;;;;;;;1.85;1.30;;;26.10;98.80;;;;;;5115557;28;20020;-76
2022/09/03 07:26:00;;;;;;;1.70;1.00;;;28.10;98.60;;;;;;5116028;28;20441;-76
2022/09/03 07:28:28;;;;;;;3.08;1.25;;;28.10;95.90;;;;;;5115858;28;20077;-76
2022/09/03 07:31:01;;;;;;;2.75;1.27;;;27.80;96.30;;;;;;5105944;28;20023;-76
2022/09/03 07:33:29;;;;;;;3.17;1.50;;;25.70;95.80;;;;;;5115840;28;20035;-76
2022/09/03 07:35:54;;;;;;;2.75;1.55;;;27.30;95.30;;;;;;5115976;28;20043;-76
2022/09/03 07:38:22;;;;;;;1.70;1.08;;;27.90;95.10;;;;;;5114841;28;20572;-75
2022/09/03 07:40:48;;;;;;;2.15;1.38;;;28.90;94.50;;;;;;5115194;28;20577;-75
2022/09/03 07:43:13;;;;;;;3.50;1.40;;;29.70;93.60;;;;;;5115269;28;20705;-76
2022/09/03 07:45:39;;;;;;;4.22;1.42;;;28.10;92.50;;;;;;5115005;28;20471;-76
2022/09/03 07:48:04;;;;;;;2.03;1.27;;;29.00;92.80;;;;;;5115221;28;20570;-76
2022/09/03 07:50:36;;;;;;;1.65;1.10;;;27.70;91.50;;;;;;5115138;28;20046;-76
2022/09/03 07:53:03;;;;;;;2.33;1.50;;;29.60;90.90;;;;;;5115554;28;20024;-76
2022/09/03 07:55:28;;;;;;;2.33;1.20;;;28.40;89.70;;;;;;5114869;28;20035;-76
2022/09/03 07:57:58;;;;;;;1.48;1.30;;;30.30;88.70;;;;;;5114896;28;20020;-76
2022/09/03 08:00:23;;;;;;;;;;;27.70;89.10;;;;;;5115406;28;20034;-76
2022/09/03 08:02:51;;;;;;;1.50;1.40;;;29.30;87.50;;;;;;5114838;28;19904;-75
2022/09/03 08:05:19;;;;;;;2.35;1.60;;;28.60;88.50;;;;;;5114913;28;20019;-76
2022/09/03 08:07:44;;;;;;;2.88;1.48;;;29.50;89.00;;;;;;5114839;28;20018;-76
2022/09/03 08:10:10;;;;;;;3.22;1.30;;;31.70;85.70;;;;;;5114779;28;20015;-76
2022/09/03 08:12:36;;;;;;;3.40;1.23;;;31.00;83.20;;;;;;5114168;28;20024;-76
2022/09/03 08:15:01;;;;;;;1.40;1.30;;;27.80;80.20;;;;;;5113589;28;20027;-76
2022/09/03 08:17:27;;;;;;;3.85;1.50;;;29.80;83.90;;;;;;5114556;28;20031;-75
2022/09/03 08:19:54;;;;;;;3.80;1.23;;;30.80;81.70;;;;;;5114422;28;20016;-76
2022/09/03 08:22:21;;;;;;;1.40;1.30;;;30.00;80.80;;;;;;5114876;28;20024;-76
2022/09/03 08:24:47;;;;;;;2.55;1.50;;;29.10;78.10;;;;;;5114723;28;20082;-76
2022/09/03 08:27:13;;;;;;;3.30;1.35;;;31.90;80.40;;;;;;5114489;28;20470;-76
2022/09/03 08:29:38;;;;;;;2.92;1.50;;;31.10;78.90;;;;;;5114736;28;20051;-76
2022/09/03 08:32:04;;;;;;;2.13;1.35;;;31.80;76.10;;;;;;5114576;28;20019;-76
2022/09/03 08:34:29;;;;;;;3.00;1.20;;;32.70;75.00;;;;;;5114508;28;20412;-76
2022/09/03 08:36:55;;;;;;;1.60;1.50;;;31.40;74.80;;;;;;5114219;28;20035;-76
2022/09/03 08:39:20;;;;;;;2.60;1.42;;;30.70;73.50;;;;;;5114360;28;20044;-76
2022/09/03 08:41:49;;;;;;;2.35;1.30;;;30.30;73.00;;;;;;5114067;28;20062;-76
2022/09/03 08:44:26;;;;;;;3.90;1.58;;;30.10;72.60;;;;;;5114208;28;20047;-76
2022/09/03 08:47:04;;;;;;;1.45;1.35;;;29.80;71.60;;;;;;5114276;28;20032;-76
2022/09/03 08:49:38;;;;;;;2.08;1.33;;;30.90;72.80;;;;;;5114036;28;20031;-75
2022/09/03 08:52:12;;;;;;;3.45;1.60;;;30.40;70.90;;;;;;5114095;28;20077;-76
2022/09/03 08:54:37;;;;;;;2.22;1.63;;;31.40;72.30;;;;;;5113847;28;20092;-77
2022/09/03 08:57:07;;;;;;;2.92;1.42;;;29.70;69.80;;;;;;5113683;28;20102;-76
2022/09/03 08:59:32;;;;;;;4.45;1.27;;;29.50;70.50;;;;;;5114007;28;20043;-78
2022/09/03 09:02:24;;;;;;;2.25;1.42;;;29.30;70.40;;;;;;5113290;28;20642;-76
2022/09/03 09:05:13;;;;;;;2.95;1.13;;;31.40;71.70;;;;;;5113957;28;20054;-76
2022/09/03 09:07:52;;;;;;;1.85;1.30;;;32.80;69.50;;;;;;5113628;28;20022;-76
2022/09/03 09:10:29;;;;;;;1.65;1.25;;;33.40;67.30;;;;;;5113636;28;20369;-75
2022/09/03 09:13:29;;;;;;;2.42;1.20;;;34.20;65.60;;;;;;5113600;28;20028;-75
2022/09/03 09:16:04;;;;;;;1.33;1.23;;;32.00;64.50;;;;;;5112685;28;20405;-76
2022/09/03 09:18:30;;;;;;;1.80;1.20;;;32.70;62.70;;;;;;5113491;28;20039;-76
2022/09/03 09:21:08;;;;;;;4.47;1.23;;;32.30;62.50;;;;;;5113320;28;20024;-76
2022/09/03 09:23:53;;;;;;;1.58;1.30;;;33.70;62.20;;;;;;5113301;28;20027;-77
2022/09/03 09:26:20;;;;;;;1.50;1.40;;;32.40;60.40;;;;;;5113364;28;20016;-76
2022/09/03 09:28:54;;;;;;;1.42;1.33;;;32.50;61.70;;;;;;5113124;28;20020;-75
2022/09/03 09:31:20;;;;;;;1.38;1.27;;;32.40;60.60;;;;;;5113969;28;20019;-76
2022/09/03 09:33:45;;;;;;;2.22;1.20;;;32.50;60.50;;;;;;5114620;28;20051;-77
2022/09/03 09:36:15;;;;;;;2.83;1.30;;;33.20;60.10;;;;;;5104893;28;20107;-76
2022/09/03 09:38:44;;;;;;;5.40;1.40;;;33.60;58.50;;;;;;5093463;28;20050;-76
2022/09/03 09:41:12;;;;;;;1.30;1.25;;;33.80;58.60;;;;;;5101164;28;20016;-76
2022/09/03 09:43:39;;;;;;;2.10;1.47;;;30.40;56.60;;;;;;5113865;28;20020;-77
2022/09/03 09:46:10;;;;;;;2.53;1.20;;;33.40;62.80;;;;;;5114013;28;20031;-77
2022/09/03 09:48:45;;;;;;;2.38;1.45;;;35.50;57.10;;;;;;5113574;28;20036;-77
2022/09/03 09:51:20;;;;;;;1.58;1.30;;;32.70;56.00;;;;;;5113778;28;20023;-77
2022/09/03 09:53:46;;;;;;;4.80;1.45;;;32.10;55.40;;;;;;5113491;28;20457;-77
2022/09/03 09:56:24;;;;;;;4.32;1.45;;;34.10;56.50;;;;;;5099895;28;20028;-77
2022/09/03 09:59:05;;;;;;;4.15;1.25;;;33.80;56.00;;;;;;5093805;28;20012;-77
2022/09/03 10:01:31;;;;;;;3.58;1.33;;;30.90;54.70;;;;;;5099740;28;20066;-76
2022/09/03 10:03:59;;;;;;;5.57;1.20;;;33.10;56.70;;;;;;5113547;28;20043;-76
2022/09/03 10:09:22;;;;;;;2.15;1.30;;;33.10;54.20;;;;;;5098705;28;20426;-77
2022/09/03 10:12:23;;;;;;;1.30;1.20;;;31.50;53.10;;;;;;5094250;28;20327;-77
2022/09/03 10:14:52;;;;;;;2.15;1.40;;;33.50;54.60;;;;;;5054260;28;20118;-77
2022/09/03 10:17:22;;;;;;;2.72;1.33;;;31.30;53.20;;;;;;5110787;28;20668;-76
2022/09/03 10:20:32;;;;;;;2.95;1.65;;;33.10;54.20;;;;;;5114121;28;20517;-77
2022/09/03 10:23:03;;;;;;;;;;;33.90;54.20;;;;;;5114403;28;20050;-76
2022/09/03 10:25:54;;;;;;;1.35;1.25;;;34.30;52.00;;;;;;5113918;28;19903;-77
2022/09/03 10:28:24;;;;;;;4.75;1.52;;;33.40;50.90;;;;;;5113659;28;20016;-77
2022/09/03 10:30:59;;;;;;;3.30;1.40;;;32.70;50.70;;;;;;5113631;28;20038;-77
2022/09/03 10:33:34;;;;;;;2.83;1.52;;;33.10;51.50;;;;;;5094544;28;20025;-76
2022/09/03 10:36:10;;;;;;;2.67;1.38;;;35.80;51.10;;;;;;5105926;28;20054;-76
2022/09/03 10:38:36;;;;;;;2.83;1.48;;;33.30;49.00;;;;;;5113773;28;20044;-77
2022/09/03 10:41:27;;;;;;;2.17;1.33;;;34.20;51.70;;;;;;5116675;28;20637;-77
2022/09/03 10:44:41;;;;;;;2.42;1.20;;;31.20;48.20;;;;;;5105117;28;20098;-77
2022/09/03 10:47:31;;;;;;;1.92;1.30;;;31.90;50.80;;;;;;5118332;28;20046;-76
2022/09/03 10:50:22;;;;;;;2.75;1.23;;;32.60;50.70;;;;;;5117651;28;20027;-77
2022/09/03 10:53:24;;;;;;;2.25;1.10;;;33.20;52.20;;;;;;5117061;28;20070;-77
2022/09/03 10:55:56;;;;;;;5.13;1.30;;;32.60;54.90;;;;;;5116662;28;20024;-77
2022/09/03 10:58:31;;;;;;;4.47;1.38;;;32.00;52.20;;;;;;5097977;28;20681;-76
2022/09/03 11:01:08;;;;;;;1.80;1.10;;;29.30;52.00;;;;;;5097460;28;20028;-76
2022/09/03 11:03:48;;;;;;;1.63;1.10;;;29.10;53.90;;;;;;5100794;28;20035;-76
2022/09/03 11:06:18;;;;;;;1.52;0.95;;;28.00;54.20;;;;;;5117862;28;20020;-77
2022/09/03 11:08:55;;;;;;;1.48;1.02;;;27.40;53.40;;;;;;5117153;28;20076;-76
2022/09/03 11:11:31;;;;;;;4.30;1.10;;;27.20;54.60;;;;;;5097284;28;20028;-76
2022/09/03 11:14:08;;;;;;;2.90;1.33;;;26.70;54.90;;;;;;5098437;28;20069;-77
2022/09/03 11:16:44;;;;;;;1.83;1.60;;;26.00;55.40;;;;;;5096652;28;20091;-77
2022/09/03 11:19:15;;;;;;;1.55;0.98;;;25.90;55.40;;;;;;5113357;28;20034;-75
2022/09/03 11:21:42;;;;;;;4.07;1.40;;;26.00;55.70;;;;;;5117084;28;20024;-76
2022/09/03 11:24:25;;;;;;;1.50;1.20;;;26.40;56.20;;;;;;5106850;28;20028;-76
2022/09/03 11:27:14;;;;;;;2.47;1.20;;;26.30;56.30;;;;;;5109644;28;20024;-77
2022/09/03 11:30:01;;;;;;;1.87;1.17;;;26.10;56.00;;;;;;5118347;28;20019;-76
2022/09/03 11:32:47;;;;;;;2.40;1.30;;;26.00;56.60;;;;;;5118472;28;20256;-75
2022/09/03 11:35:14;;;;;;;1.65;1.20;;;26.30;56.50;;;;;;5117480;28;20023;-76
2022/09/03 11:38:00;;;;;;;2.33;1.10;;;25.90;56.70;;;;;;5116904;28;20040;-75
2022/09/03 11:40:38;;;;;;;2.47;1.10;;;26.30;58.10;;;;;;5116708;28;20020;-76
2022/09/03 11:43:23;;;;;;;3.47;1.40;;;26.20;57.70;;;;;;5115851;28;20357;-75
2022/09/03 11:46:20;;;;;;;3.00;1.17;;;26.80;57.80;;;;;;5114958;28;20102;-76
2022/09/03 11:48:47;;;;;;;4.25;1.50;;;26.40;57.30;;;;;;5100852;28;20046;-76
2022/09/03 11:51:40;;;;;;;1.77;1.20;;;26.00;56.80;;;;;;5114363;28;20454;-76
2022/09/03 11:54:12;;;;;;;1.63;1.20;;;26.30;57.20;;;;;;5114678;28;20019;-76
2022/09/03 11:56:39;;;;;;;1.60;1.42;;;26.30;56.30;;;;;;5105878;28;20090;-76
2022/09/03 11:59:17;;;;;;;1.38;1.27;;;26.50;56.40;;;;;;5094130;28;20096;-75
2022/09/03 12:02:07;;;;;;;2.42;1.05;;;26.10;56.70;;;;;;5094157;28;20078;-76
2022/09/03 12:05:11;;;;;;;1.45;1.35;;;26.50;56.30;;;;;;5094190;28;20027;-75
2022/09/03 12:07:37;;;;;;;1.40;1.30;;;26.60;55.60;;;;;;5093983;28;20130;-77
2022/09/03 12:10:06;;;;;;;1.40;1.17;;;26.50;55.10;;;;;;5094432;28;20099;-76
2022/09/03 12:13:06;;;;;;;3.25;1.45;;;26.40;55.60;;;;;;5095200;28;20054;-76
2022/09/03 12:15:39;;;;;;;;;;;26.00;54.10;;;;;;5095201;28;20024;-76
2022/09/03 12:18:19;;;;;;;1.23;1.13;;;26.60;54.90;;;;;;5094795;28;20371;-76
2022/09/03 12:21:00;;;;;;;2.35;1.13;;;26.10;53.70;;;;;;5113890;28;20042;-76
2022/09/03 12:23:33;;;;;;;1.63;1.10;;;26.40;53.90;;;;;;5114644;28;20051;-76
2022/09/03 12:26:04;;;;;;;1.73;1.20;;;27.20;54.00;;;;;;5095518;28;20024;-77
2022/09/03 12:28:32;;;;;;;2.97;1.20;;;26.70;53.20;;;;;;5114476;28;20030;-76
2022/09/03 12:31:23;;;;;;;2.25;1.20;;;26.30;53.00;;;;;;5101287;28;20458;-76
2022/09/03 12:33:55;;;;;;;2.40;1.20;;;26.50;53.20;;;;;;5114958;28;20027;-75
2022/09/03 12:36:21;;;;;;;2.80;1.00;;;26.70;52.90;;;;;;5114507;28;20024;-77
2022/09/03 12:38:48;;;;;;;1.70;1.10;;;26.90;52.10;;;;;;5114157;28;20039;-76
2022/09/03 12:41:22;;;;;;;1.48;1.10;;;26.80;52.10;;;;;;5114889;28;20103;-76
2022/09/03 12:43:53;;;;;;;2.95;1.15;;;26.80;52.20;;;;;;5114426;28;20077;-76
2022/09/03 12:46:23;;;;;;;1.73;1.40;;;26.50;51.40;;;;;;5114829;28;20350;-76
2022/09/03 12:49:04;;;;;;;1.33;1.20;;;26.30;51.60;;;;;;5093820;28;20028;-76
2022/09/03 12:51:36;;;;;;;2.28;1.40;;;26.80;51.70;;;;;;5112946;28;20020;-76
2022/09/03 12:54:04;;;;;;;2.47;1.10;;;26.90;51.70;;;;;;5110699;28;20508;-76
2022/09/03 12:56:33;;;;;;;1.40;1.30;;;26.60;51.70;;;;;;5093464;28;20433;-76
2022/09/03 12:59:08;;;;;;;2.13;1.10;;;27.10;52.00;;;;;;5104360;28;20031;-74
2022/09/03 13:01:48;;;;;;;1.85;1.30;;;26.70;50.90;;;;;;5107687;28;20077;-75
2022/09/03 13:04:19;;;;;;;2.60;1.23;;;26.40;50.70;;;;;;5113609;28;20027;-74
2022/09/03 13:07:13;;;;;;;1.52;1.15;;;26.50;50.80;;;;;;5115160;28;20675;-76
2022/09/03 13:09:41;;;;;;;2.80;1.10;;;26.50;51.00;;;;;;5109848;28;20040;-77
2022/09/03 13:12:19;;;;;;;1.90;1.10;;;26.70;51.00;;;;;;5115260;28;20027;-77
2022/09/03 13:14:46;;;;;;;1.98;1.00;;;27.00;51.00;;;;;;5115737;28;20028;-76
2022/09/03 13:17:24;;;;;;;3.28;1.00;;;26.70;50.40;;;;;;5115982;28;20458;-75
2022/09/03 13:19:58;;;;;;;1.50;1.20;;;27.10;50.40;;;;;;5094810;28;20020;-77
2022/09/03 13:22:53;;;;;;;2.15;1.02;;;27.30;50.80;;;;;;5097322;28;20088;-76